Ben-my-chree — MXLG6 — position and weather

sailwx.info

Track history (hours):
 
Tides and Currents Weather Stations Pressure Air Temp Water Temp Dewpoint Dewpoint Depression Visibility Wind Speed Wind Dir Waves Ship Positions

Ben-my-chree

Operator: The Isle of Man Steam Packet Co Ltd

Last reported at 2017-Nov-19 23:03 UTC. Time now 2017-Nov-20 03:59 UTC.
Position N 54°02' W 002°55'.

Length 120 m; draft 5 m.

Type: Passenger vessel. MMSI: 234983000.

Date/timePositionNaut miles runAvg speedWind from/ knotsBaromVisibWave heightAir tempDewpointWater temp
2017-Nov-19 23:03N 54°02' W 002°55'1 9.3
2017-Nov-19 22:58N 54°02' W 002°56'919.5
2017-Nov-19 22:31N 53°56' W 003°08'918.4
2017-Nov-19 22:00N 53°56' W 003°24'16 2.7
2017-Nov-19 15:53N 53°43' W 003°42'718.7
2017-Nov-19 15:31N 53°39' W 003°33'918.9
2017-Nov-19 15:00N 53°33' W 003°21'918.2
2017-Nov-19 14:30N 53°30' W 003°06'713.9
2017-Nov-19 14:00N 53°24' W 003°01'0 0.0
2017-Nov-19 13:28N 53°24' W 003°01'0 0.0
2017-Nov-19 12:55N 53°24' W 003°01'0 0.0
2017-Nov-19 12:28N 53°24' W 003°01'0 1.0
2017-Nov-19 12:00N 53°25' W 003°01'612.5
2017-Nov-19 11:30N 53°30' W 003°06'713.1
2017-Nov-19 11:00N 53°31' W 003°17'917.9
2017-Nov-19 10:30N 53°37' W 003°29'918.1
2017-Nov-19 10:00N 53°43' W 003°40'918.8
2017-Nov-19 09:30N 53°49' W 003°52'15 2.4
2017-Nov-19 03:12N 53°56' W 003°29'1019.1
2017-Nov-19 02:42N 53°56' W 003°13'419.7
2017-Nov-19 02:30N 53°57' W 003°06'8 2.5
2017-Nov-18 23:13N 54°02' W 002°55'415.0
2017-Nov-18 22:58N 53°59' W 003°00'818.4
2017-Nov-18 22:30N 53°55' W 003°13'918.0
2017-Nov-18 22:00N 53°55' W 003°28'31 7.2
2017-Nov-18 17:41N 54°05' W 004°18'417.4
2017-Nov-18 17:29N 54°03' W 004°14'2417.3
2017-Nov-18 16:04N 53°45' W 003°46'217.5
2017-Nov-18 15:58N 53°44' W 003°44'817.7
2017-Nov-18 15:30N 53°38' W 003°33'917.8
2017-Nov-18 15:00N 53°33' W 003°22'917.6
2017-Nov-18 14:30N 53°31' W 003°07'816.1
2017-Nov-18 14:00N 53°24' W 003°00'0 0.2
2017-Nov-18 13:28N 53°24' W 003°01'0 0.0
2017-Nov-18 13:00N 53°24' W 003°01'0 0.0
2017-Nov-18 12:30N 53°24' W 003°01'0 0.2
2017-Nov-18 12:00N 53°24' W 003°00'815.3
2017-Nov-18 11:30N 53°31' W 003°07'816.5
2017-Nov-18 11:00N 53°32' W 003°20'918.0
2017-Nov-18 10:30N 53°38' W 003°32'918.1
2017-Nov-18 10:00N 53°44' W 003°43'918.4
2017-Nov-18 09:30N 53°51' W 003°54'27 7.0
2017-Nov-18 05:40N 54°09' W 004°27'316.7
2017-Nov-18 05:31N 54°08' W 004°23'1117.0
2017-Nov-18 04:52N 54°04' W 004°06'916.5
2017-Nov-18 04:20N 54°01' W 003°52'1116.4
2017-Nov-18 03:39N 53°57' W 003°34'416.4
2017-Nov-18 03:24N 53°55' W 003°28'817.0
2017-Nov-18 02:54N 53°56' W 003°13'718.3
2017-Nov-18 02:30N 53°58' W 003°02'6 1.7
2017-Nov-17 23:10N 54°02' W 002°55'2 9.7
2017-Nov-17 22:54N 54°00' W 002°58'718.3
2017-Nov-17 22:31N 53°56' W 003°08'917.9
2017-Nov-17 22:00N 53°56' W 003°23'917.7
2017-Nov-17 21:30N 53°58' W 003°38'10 2.0
2017-Nov-17 16:26N 54°01' W 003°54'1516.5
2017-Nov-17 15:30N 53°56' W 003°29'1017.8
2017-Nov-17 14:57N 53°56' W 003°13'1019.0
2017-Nov-17 14:27N 54°00' W 002°59'3 1.2
2017-Nov-17 12:12N 54°02' W 002°55'212.2
2017-Nov-17 12:00N 54°00' W 002°58'816.9
2017-Nov-17 11:31N 53°56' W 003°10'917.1
2017-Nov-17 11:00N 53°55' W 003°25'917.3
2017-Nov-17 10:29N 53°58' W 003°39'28 5.5
2017-Nov-17 05:22N 54°09' W 004°24'617.5
2017-Nov-17 05:00N 54°06' W 004°14'1217.4
2017-Nov-17 04:17N 54°01' W 003°55'1617.5
2017-Nov-17 03:22N 53°56' W 003°29'1018.0
2017-Nov-17 02:50N 53°56' W 003°13'719.6
2017-Nov-17 02:30N 53°58' W 003°02'6 1.7
2017-Nov-16 23:14N 54°02' W 002°55'413.9
2017-Nov-16 22:57N 53°59' W 003°00'817.8
2017-Nov-16 22:31N 53°55' W 003°12'917.8
2017-Nov-16 22:00N 53°56' W 003°27'37 8.8
2017-Nov-16 17:47N 54°09' W 004°26'2116.6
2017-Nov-16 16:30N 54°01' W 003°53'1616.6
2017-Nov-16 15:31N 53°55' W 003°26'018.1
2017-Nov-16 15:30N 53°55' W 003°26'917.6
2017-Nov-16 15:00N 53°56' W 003°11'918.8
2017-Nov-16 14:30N 54°01' W 002°58'2 0.9
2017-Nov-16 12:14N 54°02' W 002°55'413.2
2017-Nov-16 11:57N 53°59' W 003°00'715.8
2017-Nov-16 11:30N 53°56' W 003°10'816.4
2017-Nov-16 11:00N 53°55' W 003°24'916.9
2017-Nov-16 10:29N 53°56' W 003°39'29 6.0
2017-Nov-16 05:35N 54°09' W 004°24'1116.0
2017-Nov-16 04:55N 54°05' W 004°07'816.3
2017-Nov-16 04:26N 54°01' W 003°55'1716.5
2017-Nov-16 03:26N 53°55' W 003°29'917.5
2017-Nov-16 02:55N 53°56' W 003°13'818.9
2017-Nov-16 02:30N 53°59' W 003°01'5 1.4
2017-Nov-15 23:10N 54°02' W 002°55'212.0
2017-Nov-15 22:59N 54°00' W 002°58'816.7
2017-Nov-15 22:30N 53°56' W 003°09'816.9
2017-Nov-15 22:00N 53°55' W 003°23'916.8
2017-Nov-15 21:28N 53°58' W 003°38'12 2.5
2017-Nov-15 16:35N 54°02' W 003°57'1817.6
2017-Nov-15 15:35N 53°56' W 003°30'118.2
2017-Nov-15 15:30N 53°56' W 003°27'918.1
2017-Nov-15 15:00N 53°56' W 003°12'918.8
2017-Nov-15 14:30N 54°00' W 002°58'2 1.0
2017-Nov-15 12:08N 54°02' W 002°55'212.1
2017-Nov-15 11:57N 54°01' W 002°58'715.8
2017-Nov-15 11:31N 53°56' W 003°08'816.5
2017-Nov-15 11:01N 53°55' W 003°21'816.7
2017-Nov-15 10:30N 53°57' W 003°35'917.2
2017-Nov-15 10:00N 54°00' W 003°49'24 5.0
2017-Nov-15 05:15N 54°09' W 004°27'415.2
2017-Nov-15 05:00N 54°09' W 004°20'915.3
2017-Nov-15 04:26N 54°05' W 004°07'915.1
2017-Nov-15 03:53N 54°01' W 003°54'1015.0
2017-Nov-15 03:11N 53°58' W 003°38'315.0
2017-Nov-15 03:00N 53°56' W 003°33'814.8
2017-Nov-15 02:27N 53°55' W 003°19'715.3
2017-Nov-15 02:01N 53°56' W 003°08'816.8
2017-Nov-15 01:30N 54°01' W 002°57'1 0.5
2017-Nov-14 22:57N 54°02' W 002°55'511.9
2017-Nov-14 22:30N 53°58' W 003°02'816.5
2017-Nov-14 22:00N 53°55' W 003°15'917.5
2017-Nov-14 21:30N 53°56' W 003°30'32 7.7
2017-Nov-14 17:23N 54°07' W 004°20'816.4
2017-Nov-14 16:53N 54°05' W 004°07'616.6
2017-Nov-14 16:29N 54°02' W 003°57'1517.0
2017-Nov-14 15:37N 53°57' W 003°34'216.9
2017-Nov-14 15:29N 53°56' W 003°30'917.3
2017-Nov-14 14:56N 53°56' W 003°14'818.1
2017-Nov-14 14:30N 53°59' W 003°02'5 2.4
2017-Nov-14 12:21N 54°02' W 002°55'410.7
2017-Nov-14 11:58N 53°59' W 003°00'715.8
2017-Nov-14 11:30N 53°56' W 003°11'816.5
2017-Nov-14 11:00N 53°55' W 003°25'816.7
2017-Nov-14 10:30N 53°56' W 003°39'24 5.7
2017-Nov-14 06:18N 54°08' W 004°15'3015.4
2017-Nov-14 04:19N 53°56' W 003°28'615.5
2017-Nov-14 03:57N 53°55' W 003°18'715.6
2017-Nov-14 03:30N 53°57' W 003°06'815.8
2017-Nov-14 03:00N 54°02' W 002°56'0 0.1
2017-Nov-13 23:53N 54°02' W 002°55'513.5
2017-Nov-13 23:30N 53°58' W 003°02'816.0
2017-Nov-13 23:00N 53°56' W 003°14'816.6
2017-Nov-13 22:30N 53°56' W 003°29'21 0.9
2017-Nov-12 23:53N 54°02' W 002°55'513.6
2017-Nov-12 23:30N 53°58' W 003°02'816.1
2017-Nov-12 23:01N 53°55' W 003°14'816.8
2017-Nov-12 22:30N 53°56' W 003°28'15 2.3
2017-Nov-12 16:02N 53°42' W 003°37'015.1
2017-Nov-12 16:00N 53°41' W 003°36'815.4
2017-Nov-12 15:30N 53°36' W 003°27'815.3
2017-Nov-12 15:00N 53°32' W 003°16'713.9
2017-Nov-12 14:30N 53°29' W 003°05'612.4
2017-Nov-12 14:00N 53°24' W 003°01'0 0.0
2017-Nov-12 13:30N 53°24' W 003°01'0 0.0
2017-Nov-12 13:00N 53°24' W 003°01'0 0.0
2017-Nov-12 12:27N 53°24' W 003°01'2 4.0
2017-Nov-12 12:00N 53°26' W 003°01'815.5
2017-Nov-12 11:30N 53°32' W 003°09'714.6
2017-Nov-12 11:00N 53°33' W 003°21'917.0
2017-Nov-12 10:30N 53°38' W 003°32'816.8
2017-Nov-12 10:00N 53°44' W 003°42'916.8
2017-Nov-12 09:30N 53°50' W 003°53'11 0.7
2017-Nov-11 16:01N 53°42' W 003°39'017.6
2017-Nov-11 16:00N 53°42' W 003°38'817.0
2017-Nov-11 15:30N 53°36' W 003°28'916.8
2017-Nov-11 15:00N 53°32' W 003°16'714.7
2017-Nov-11 14:31N 53°29' W 003°05'611.4
2017-Nov-11 14:00N 53°24' W 003°01'0 0.0
2017-Nov-11 13:30N 53°24' W 003°01'0 0.0
2017-Nov-11 13:00N 53°24' W 003°01'0 0.0
2017-Nov-11 12:30N 53°24' W 003°01'2 4.3
2017-Nov-11 12:00N 53°26' W 003°01'815.6
2017-Nov-11 11:30N 53°32' W 003°10'816.3
2017-Nov-11 11:00N 53°32' W 003°24'815.5
2017-Nov-11 10:30N 53°38' W 003°32'917.1
2017-Nov-11 10:00N 53°44' W 003°43'917.5
2017-Nov-11 09:30N 53°50' W 003°54'22 5.5
2017-Nov-11 05:33N 54°07' W 004°17'3117.5
2017-Nov-11 03:47N 53°56' W 003°28'916.8
2017-Nov-11 03:15N 53°56' W 003°13'416.1
2017-Nov-11 03:01N 53°57' W 003°07'815.3
2017-Nov-11 02:30N 54°02' W 002°57'1 0.3
2017-Nov-10 23:34N 54°02' W 002°55'0 2.3
2017-Nov-10 23:28N 54°02' W 002°55'714.5
2017-Nov-10 23:00N 53°58' W 003°04'917.1
2017-Nov-10 22:31N 53°55' W 003°18'816.9
2017-Nov-10 22:01N 53°56' W 003°32'2 0.3
2017-Nov-10 15:38N 53°56' W 003°29'316.0
2017-Nov-10 15:28N 53°56' W 003°25'715.7
2017-Nov-10 15:00N 53°56' W 003°12'714.6
2017-Nov-10 14:30N 53°59' W 003°01'5 1.8
2017-Nov-10 11:59N 54°02' W 002°55'816.7
2017-Nov-10 11:31N 53°57' W 003°06'917.6
2017-Nov-10 11:00N 53°55' W 003°21'917.5
2017-Nov-10 10:30N 53°57' W 003°35'4 0.7
2017-Nov-10 03:43N 53°56' W 003°28'916.0
2017-Nov-10 03:10N 53°56' W 003°13'215.7
2017-Nov-10 03:00N 53°56' W 003°09'714.9
2017-Nov-10 02:31N 54°00' W 002°58'2 0.7
2017-Nov-09 23:12N 54°02' W 002°55'  
Track history (hours):
 
Tides and Currents Weather Stations Pressure Air Temp Water Temp Dewpoint Dewpoint Depression Visibility Wind Speed Wind Dir Waves Ship Positions

Ben-my-chree

Operator: The Isle of Man Steam Packet Co Ltd

Last reported at 2017-Nov-19 23:03 UTC. Time now 2017-Nov-20 03:59 UTC.
Position N 54°02' W 002°55'.

Length 120 m; draft 5 m.

Type: Passenger vessel. MMSI: 234983000.

Date/timePositionNaut miles runAvg speedWind from/ knotsBaromVisibWave heightAir tempDewpointWater temp
2017-Nov-19 23:03N 54°02' W 002°55'1 9.3
2017-Nov-19 22:58N 54°02' W 002°56'919.5
2017-Nov-19 22:31N 53°56' W 003°08'918.4
2017-Nov-19 22:00N 53°56' W 003°24'16 2.7
2017-Nov-19 15:53N 53°43' W 003°42'718.7
2017-Nov-19 15:31N 53°39' W 003°33'918.9
2017-Nov-19 15:00N 53°33' W 003°21'918.2
2017-Nov-19 14:30N 53°30' W 003°06'713.9
2017-Nov-19 14:00N 53°24' W 003°01'0 0.0
2017-Nov-19 13:28N 53°24' W 003°01'0 0.0
2017-Nov-19 12:55N 53°24' W 003°01'0 0.0
2017-Nov-19 12:28N 53°24' W 003°01'0 1.0
2017-Nov-19 12:00N 53°25' W 003°01'612.5
2017-Nov-19 11:30N 53°30' W 003°06'713.1
2017-Nov-19 11:00N 53°31' W 003°17'917.9
2017-Nov-19 10:30N 53°37' W 003°29'918.1
2017-Nov-19 10:00N 53°43' W 003°40'918.8
2017-Nov-19 09:30N 53°49' W 003°52'15 2.4
2017-Nov-19 03:12N 53°56' W 003°29'1019.1
2017-Nov-19 02:42N 53°56' W 003°13'419.7
2017-Nov-19 02:30N 53°57' W 003°06'8 2.5
2017-Nov-18 23:13N 54°02' W 002°55'415.0
2017-Nov-18 22:58N 53°59' W 003°00'818.4
2017-Nov-18 22:30N 53°55' W 003°13'918.0
2017-Nov-18 22:00N 53°55' W 003°28'31 7.2
2017-Nov-18 17:41N 54°05' W 004°18'417.4
2017-Nov-18 17:29N 54°03' W 004°14'2417.3
2017-Nov-18 16:04N 53°45' W 003°46'217.5
2017-Nov-18 15:58N 53°44' W 003°44'817.7
2017-Nov-18 15:30N 53°38' W 003°33'917.8
2017-Nov-18 15:00N 53°33' W 003°22'917.6
2017-Nov-18 14:30N 53°31' W 003°07'816.1
2017-Nov-18 14:00N 53°24' W 003°00'0 0.2
2017-Nov-18 13:28N 53°24' W 003°01'0 0.0
2017-Nov-18 13:00N 53°24' W 003°01'0 0.0
2017-Nov-18 12:30N 53°24' W 003°01'0 0.2
2017-Nov-18 12:00N 53°24' W 003°00'815.3
2017-Nov-18 11:30N 53°31' W 003°07'816.5
2017-Nov-18 11:00N 53°32' W 003°20'918.0
2017-Nov-18 10:30N 53°38' W 003°32'918.1
2017-Nov-18 10:00N 53°44' W 003°43'918.4
2017-Nov-18 09:30N 53°51' W 003°54'27 7.0
2017-Nov-18 05:40N 54°09' W 004°27'316.7
2017-Nov-18 05:31N 54°08' W 004°23'1117.0
2017-Nov-18 04:52N 54°04' W 004°06'916.5
2017-Nov-18 04:20N 54°01' W 003°52'1116.4
2017-Nov-18 03:39N 53°57' W 003°34'416.4
2017-Nov-18 03:24N 53°55' W 003°28'817.0
2017-Nov-18 02:54N 53°56' W 003°13'718.3
2017-Nov-18 02:30N 53°58' W 003°02'6 1.7
2017-Nov-17 23:10N 54°02' W 002°55'2 9.7
2017-Nov-17 22:54N 54°00' W 002°58'718.3
2017-Nov-17 22:31N 53°56' W 003°08'917.9
2017-Nov-17 22:00N 53°56' W 003°23'917.7
2017-Nov-17 21:30N 53°58' W 003°38'10 2.0
2017-Nov-17 16:26N 54°01' W 003°54'1516.5
2017-Nov-17 15:30N 53°56' W 003°29'1017.8
2017-Nov-17 14:57N 53°56' W 003°13'1019.0
2017-Nov-17 14:27N 54°00' W 002°59'3 1.2
2017-Nov-17 12:12N 54°02' W 002°55'212.2
2017-Nov-17 12:00N 54°00' W 002°58'816.9
2017-Nov-17 11:31N 53°56' W 003°10'917.1
2017-Nov-17 11:00N 53°55' W 003°25'917.3
2017-Nov-17 10:29N 53°58' W 003°39'28 5.5
2017-Nov-17 05:22N 54°09' W 004°24'617.5
2017-Nov-17 05:00N 54°06' W 004°14'1217.4
2017-Nov-17 04:17N 54°01' W 003°55'1617.5
2017-Nov-17 03:22N 53°56' W 003°29'1018.0
2017-Nov-17 02:50N 53°56' W 003°13'719.6
2017-Nov-17 02:30N 53°58' W 003°02'6 1.7
2017-Nov-16 23:14N 54°02' W 002°55'413.9
2017-Nov-16 22:57N 53°59' W 003°00'817.8
2017-Nov-16 22:31N 53°55' W 003°12'917.8
2017-Nov-16 22:00N 53°56' W 003°27'37 8.8
2017-Nov-16 17:47N 54°09' W 004°26'2116.6
2017-Nov-16 16:30N 54°01' W 003°53'1616.6
2017-Nov-16 15:31N 53°55' W 003°26'018.1
2017-Nov-16 15:30N 53°55' W 003°26'917.6
2017-Nov-16 15:00N 53°56' W 003°11'918.8
2017-Nov-16 14:30N 54°01' W 002°58'2 0.9
2017-Nov-16 12:14N 54°02' W 002°55'413.2
2017-Nov-16 11:57N 53°59' W 003°00'715.8
2017-Nov-16 11:30N 53°56' W 003°10'816.4
2017-Nov-16 11:00N 53°55' W 003°24'916.9
2017-Nov-16 10:29N 53°56' W 003°39'29 6.0
2017-Nov-16 05:35N 54°09' W 004°24'1116.0
2017-Nov-16 04:55N 54°05' W 004°07'816.3
2017-Nov-16 04:26N 54°01' W 003°55'1716.5
2017-Nov-16 03:26N 53°55' W 003°29'917.5
2017-Nov-16 02:55N 53°56' W 003°13'818.9
2017-Nov-16 02:30N 53°59' W 003°01'5 1.4
2017-Nov-15 23:10N 54°02' W 002°55'212.0
2017-Nov-15 22:59N 54°00' W 002°58'816.7
2017-Nov-15 22:30N 53°56' W 003°09'816.9
2017-Nov-15 22:00N 53°55' W 003°23'916.8
2017-Nov-15 21:28N 53°58' W 003°38'12 2.5
2017-Nov-15 16:35N 54°02' W 003°57'1817.6
2017-Nov-15 15:35N 53°56' W 003°30'118.2
2017-Nov-15 15:30N 53°56' W 003°27'918.1
2017-Nov-15 15:00N 53°56' W 003°12'918.8
2017-Nov-15 14:30N 54°00' W 002°58'2 1.0
2017-Nov-15 12:08N 54°02' W 002°55'212.1
2017-Nov-15 11:57N 54°01' W 002°58'715.8
2017-Nov-15 11:31N 53°56' W 003°08'816.5
2017-Nov-15 11:01N 53°55' W 003°21'816.7
2017-Nov-15 10:30N 53°57' W 003°35'917.2
2017-Nov-15 10:00N 54°00' W 003°49'24 5.0
2017-Nov-15 05:15N 54°09' W 004°27'415.2
2017-Nov-15 05:00N 54°09' W 004°20'915.3
2017-Nov-15 04:26N 54°05' W 004°07'915.1
2017-Nov-15 03:53N 54°01' W 003°54'1015.0
2017-Nov-15 03:11N 53°58' W 003°38'315.0
2017-Nov-15 03:00N 53°56' W 003°33'814.8
2017-Nov-15 02:27N 53°55' W 003°19'715.3
2017-Nov-15 02:01N 53°56' W 003°08'816.8
2017-Nov-15 01:30N 54°01' W 002°57'1 0.5
2017-Nov-14 22:57N 54°02' W 002°55'511.9
2017-Nov-14 22:30N 53°58' W 003°02'816.5
2017-Nov-14 22:00N 53°55' W 003°15'917.5
2017-Nov-14 21:30N 53°56' W 003°30'32 7.7
2017-Nov-14 17:23N 54°07' W 004°20'816.4
2017-Nov-14 16:53N 54°05' W 004°07'616.6
2017-Nov-14 16:29N 54°02' W 003°57'1517.0
2017-Nov-14 15:37N 53°57' W 003°34'216.9
2017-Nov-14 15:29N 53°56' W 003°30'917.3
2017-Nov-14 14:56N 53°56' W 003°14'818.1
2017-Nov-14 14:30N 53°59' W 003°02'5 2.4
2017-Nov-14 12:21N 54°02' W 002°55'410.7
2017-Nov-14 11:58N 53°59' W 003°00'715.8
2017-Nov-14 11:30N 53°56' W 003°11'816.5
2017-Nov-14 11:00N 53°55' W 003°25'816.7
2017-Nov-14 10:30N 53°56' W 003°39'24 5.7
2017-Nov-14 06:18N 54°08' W 004°15'3015.4
2017-Nov-14 04:19N 53°56' W 003°28'615.5
2017-Nov-14 03:57N 53°55' W 003°18'715.6
2017-Nov-14 03:30N 53°57' W 003°06'815.8
2017-Nov-14 03:00N 54°02' W 002°56'0 0.1
2017-Nov-13 23:53N 54°02' W 002°55'513.5
2017-Nov-13 23:30N 53°58' W 003°02'816.0
2017-Nov-13 23:00N 53°56' W 003°14'816.6
2017-Nov-13 22:30N 53°56' W 003°29'21 0.9
2017-Nov-12 23:53N 54°02' W 002°55'513.6
2017-Nov-12 23:30N 53°58' W 003°02'816.1
2017-Nov-12 23:01N 53°55' W 003°14'816.8
2017-Nov-12 22:30N 53°56' W 003°28'15 2.3
2017-Nov-12 16:02N 53°42' W 003°37'015.1
2017-Nov-12 16:00N 53°41' W 003°36'815.4
2017-Nov-12 15:30N 53°36' W 003°27'815.3
2017-Nov-12 15:00N 53°32' W 003°16'713.9
2017-Nov-12 14:30N 53°29' W 003°05'612.4
2017-Nov-12 14:00N 53°24' W 003°01'0 0.0
2017-Nov-12 13:30N 53°24' W 003°01'0 0.0
2017-Nov-12 13:00N 53°24' W 003°01'0 0.0
2017-Nov-12 12:27N 53°24' W 003°01'2 4.0
2017-Nov-12 12:00N 53°26' W 003°01'815.5
2017-Nov-12 11:30N 53°32' W 003°09'714.6
2017-Nov-12 11:00N 53°33' W 003°21'917.0
2017-Nov-12 10:30N 53°38' W 003°32'816.8
2017-Nov-12 10:00N 53°44' W 003°42'916.8
2017-Nov-12 09:30N 53°50' W 003°53'11 0.7
2017-Nov-11 16:01N 53°42' W 003°39'017.6
2017-Nov-11 16:00N 53°42' W 003°38'817.0
2017-Nov-11 15:30N 53°36' W 003°28'916.8
2017-Nov-11 15:00N 53°32' W 003°16'714.7
2017-Nov-11 14:31N 53°29' W 003°05'611.4
2017-Nov-11 14:00N 53°24' W 003°01'0 0.0
2017-Nov-11 13:30N 53°24' W 003°01'0 0.0
2017-Nov-11 13:00N 53°24' W 003°01'0 0.0
2017-Nov-11 12:30N 53°24' W 003°01'2 4.3
2017-Nov-11 12:00N 53°26' W 003°01'815.6
2017-Nov-11 11:30N 53°32' W 003°10'816.3
2017-Nov-11 11:00N 53°32' W 003°24'815.5
2017-Nov-11 10:30N 53°38' W 003°32'917.1
2017-Nov-11 10:00N 53°44' W 003°43'917.5
2017-Nov-11 09:30N 53°50' W 003°54'22 5.5
2017-Nov-11 05:33N 54°07' W 004°17'3117.5
2017-Nov-11 03:47N 53°56' W 003°28'916.8
2017-Nov-11 03:15N 53°56' W 003°13'416.1
2017-Nov-11 03:01N 53°57' W 003°07'815.3
2017-Nov-11 02:30N 54°02' W 002°57'1 0.3
2017-Nov-10 23:34N 54°02' W 002°55'0 2.3
2017-Nov-10 23:28N 54°02' W 002°55'714.5
2017-Nov-10 23:00N 53°58' W 003°04'917.1
2017-Nov-10 22:31N 53°55' W 003°18'816.9
2017-Nov-10 22:01N 53°56' W 003°32'2 0.3
2017-Nov-10 15:38N 53°56' W 003°29'316.0
2017-Nov-10 15:28N 53°56' W 003°25'715.7
2017-Nov-10 15:00N 53°56' W 003°12'714.6
2017-Nov-10 14:30N 53°59' W 003°01'5 1.8
2017-Nov-10 11:59N 54°02' W 002°55'816.7
2017-Nov-10 11:31N 53°57' W 003°06'917.6
2017-Nov-10 11:00N 53°55' W 003°21'917.5
2017-Nov-10 10:30N 53°57' W 003°35'4 0.7
2017-Nov-10 03:43N 53°56' W 003°28'916.0
2017-Nov-10 03:10N 53°56' W 003°13'215.7
2017-Nov-10 03:00N 53°56' W 003°09'714.9
2017-Nov-10 02:31N 54°00' W 002°58'2 0.7
2017-Nov-09 23:12N 54°02' W 002°55'  

Dump ship's entire track history